sensor_id;sensor_type;location;lat;lon;timestamp;P1;durP1;ratioP1;P2;durP2;ratioP2
69026;SDS011;56080;47.594;19.116;2022-08-02T00:02:26;5.90;;;3.80;;
69026;SDS011;56080;47.594;19.116;2022-08-02T00:07:27;5.90;;;3.80;;
69026;SDS011;56080;47.594;19.116;2022-08-02T00:12:26;6.70;;;4.10;;
69026;SDS011;56080;47.594;19.116;2022-08-02T00:17:25;6.70;;;4.10;;
69026;SDS011;56080;47.594;19.116;2022-08-02T00:22:26;5.60;;;3.80;;
69026;SDS011;56080;47.594;19.116;2022-08-02T00:27:25;5.60;;;3.80;;
69026;SDS011;56080;47.594;19.116;2022-08-02T00:32:25;5.50;;;4.00;;
69026;SDS011;56080;47.594;19.116;2022-08-02T00:37:26;5.50;;;4.00;;
69026;SDS011;56080;47.594;19.116;2022-08-02T00:42:25;5.70;;;4.30;;
69026;SDS011;56080;47.594;19.116;2022-08-02T00:47:30;5.70;;;4.30;;
69026;SDS011;56080;47.594;19.116;2022-08-02T00:52:25;6.30;;;4.40;;
69026;SDS011;56080;47.594;19.116;2022-08-02T00:57:25;6.30;;;4.40;;
69026;SDS011;56080;47.594;19.116;2022-08-02T01:02:26;5.20;;;4.00;;
69026;SDS011;56080;47.594;19.116;2022-08-02T01:07:25;5.20;;;4.00;;
69026;SDS011;56080;47.594;19.116;2022-08-02T01:12:26;5.50;;;4.10;;
69026;SDS011;56080;47.594;19.116;2022-08-02T01:17:37;5.50;;;4.10;;
69026;SDS011;56080;47.594;19.116;2022-08-02T01:32:29;5.40;;;3.50;;
69026;SDS011;56080;47.594;19.116;2022-08-02T01:37:28;5.40;;;3.50;;
69026;SDS011;56080;47.594;19.116;2022-08-02T01:42:27;5.50;;;3.90;;
69026;SDS011;56080;47.594;19.116;2022-08-02T01:47:32;5.50;;;3.90;;
69026;SDS011;56080;47.594;19.116;2022-08-02T01:52:36;5.80;;;4.20;;
69026;SDS011;56080;47.594;19.116;2022-08-02T01:57:26;5.80;;;4.20;;
69026;SDS011;56080;47.594;19.116;2022-08-02T02:02:27;6.30;;;4.70;;
69026;SDS011;56080;47.594;19.116;2022-08-02T02:07:28;6.30;;;4.70;;
69026;SDS011;56080;47.594;19.116;2022-08-02T02:12:27;6.10;;;4.50;;
69026;SDS011;56080;47.594;19.116;2022-08-02T02:17:37;6.10;;;4.50;;
69026;SDS011;56080;47.594;19.116;2022-08-02T02:22:25;5.40;;;4.10;;
69026;SDS011;56080;47.594;19.116;2022-08-02T02:27:26;5.40;;;4.10;;
69026;SDS011;56080;47.594;19.116;2022-08-02T02:32:26;5.60;;;3.60;;
69026;SDS011;56080;47.594;19.116;2022-08-02T02:37:30;5.60;;;3.60;;
69026;SDS011;56080;47.594;19.116;2022-08-02T02:42:29;6.30;;;3.80;;
69026;SDS011;56080;47.594;19.116;2022-08-02T02:47:28;6.30;;;3.80;;
69026;SDS011;56080;47.594;19.116;2022-08-02T02:52:26;6.60;;;3.50;;
69026;SDS011;56080;47.594;19.116;2022-08-02T02:57:26;6.60;;;3.50;;
69026;SDS011;56080;47.594;19.116;2022-08-02T03:02:27;5.30;;;3.60;;
69026;SDS011;56080;47.594;19.116;2022-08-02T03:07:25;5.30;;;3.60;;
69026;SDS011;56080;47.594;19.116;2022-08-02T03:12:32;6.30;;;4.20;;
69026;SDS011;56080;47.594;19.116;2022-08-02T03:17:35;6.30;;;4.20;;
69026;SDS011;56080;47.594;19.116;2022-08-02T03:22:26;6.20;;;4.60;;
69026;SDS011;56080;47.594;19.116;2022-08-02T03:27:25;6.20;;;4.60;;
69026;SDS011;56080;47.594;19.116;2022-08-02T03:32:25;7.40;;;5.20;;
69026;SDS011;56080;47.594;19.116;2022-08-02T03:37:26;7.40;;;5.20;;
69026;SDS011;56080;47.594;19.116;2022-08-02T03:42:26;6.50;;;4.80;;
69026;SDS011;56080;47.594;19.116;2022-08-02T03:47:26;6.50;;;4.80;;
69026;SDS011;56080;47.594;19.116;2022-08-02T03:52:25;6.10;;;4.00;;
69026;SDS011;56080;47.594;19.116;2022-08-02T03:57:25;6.10;;;4.00;;
69026;SDS011;56080;47.594;19.116;2022-08-02T04:02:25;5.90;;;4.40;;
69026;SDS011;56080;47.594;19.116;2022-08-02T04:07:35;5.90;;;4.40;;
69026;SDS011;56080;47.594;19.116;2022-08-02T04:12:25;6.60;;;5.00;;
69026;SDS011;56080;47.594;19.116;2022-08-02T04:17:27;6.60;;;5.00;;
69026;SDS011;56080;47.594;19.116;2022-08-02T04:22:29;6.50;;;4.80;;
69026;SDS011;56080;47.594;19.116;2022-08-02T04:27:36;6.50;;;4.80;;
69026;SDS011;56080;47.594;19.116;2022-08-02T04:32:26;6.30;;;4.60;;
69026;SDS011;56080;47.594;19.116;2022-08-02T04:37:26;6.30;;;4.60;;
69026;SDS011;56080;47.594;19.116;2022-08-02T04:42:30;5.40;;;4.00;;
69026;SDS011;56080;47.594;19.116;2022-08-02T04:47:26;5.40;;;4.00;;
69026;SDS011;56080;47.594;19.116;2022-08-02T04:52:25;5.50;;;3.70;;
69026;SDS011;56080;47.594;19.116;2022-08-02T04:57:36;5.50;;;3.70;;
69026;SDS011;56080;47.594;19.116;2022-08-02T05:02:25;5.80;;;3.80;;
69026;SDS011;56080;47.594;19.116;2022-08-02T05:07:25;5.80;;;3.80;;
69026;SDS011;56080;47.594;19.116;2022-08-02T05:12:25;5.90;;;4.10;;
69026;SDS011;56080;47.594;19.116;2022-08-02T05:17:25;5.90;;;4.10;;
69026;SDS011;56080;47.594;19.116;2022-08-02T05:22:26;5.70;;;3.80;;
69026;SDS011;56080;47.594;19.116;2022-08-02T05:27:32;5.70;;;3.80;;
69026;SDS011;56080;47.594;19.116;2022-08-02T05:32:26;5.10;;;3.40;;
69026;SDS011;56080;47.594;19.116;2022-08-02T05:37:26;5.10;;;3.40;;
69026;SDS011;56080;47.594;19.116;2022-08-02T05:42:26;5.70;;;3.20;;
69026;SDS011;56080;47.594;19.116;2022-08-02T05:47:26;5.70;;;3.20;;
69026;SDS011;56080;47.594;19.116;2022-08-02T05:52:31;5.90;;;3.50;;
69026;SDS011;56080;47.594;19.116;2022-08-02T05:57:40;5.90;;;3.50;;
69026;SDS011;56080;47.594;19.116;2022-08-02T06:07:27;5.00;;;3.10;;
69026;SDS011;56080;47.594;19.116;2022-08-02T06:12:28;5.50;;;3.00;;
69026;SDS011;56080;47.594;19.116;2022-08-02T06:17:26;5.50;;;3.00;;
69026;SDS011;56080;47.594;19.116;2022-08-02T06:22:36;4.90;;;2.70;;
69026;SDS011;56080;47.594;19.116;2022-08-02T06:27:26;4.90;;;2.70;;
69026;SDS011;56080;47.594;19.116;2022-08-02T06:32:27;4.10;;;2.60;;
69026;SDS011;56080;47.594;19.116;2022-08-02T06:42:36;4.90;;;2.70;;
69026;SDS011;56080;47.594;19.116;2022-08-02T06:47:26;4.90;;;2.70;;
69026;SDS011;56080;47.594;19.116;2022-08-02T06:52:31;5.10;;;2.70;;
69026;SDS011;56080;47.594;19.116;2022-08-02T06:57:26;5.10;;;2.70;;
69026;SDS011;56080;47.594;19.116;2022-08-02T07:02:26;5.10;;;2.70;;
69026;SDS011;56080;47.594;19.116;2022-08-02T07:07:26;5.10;;;2.70;;
69026;SDS011;56080;47.594;19.116;2022-08-02T07:12:26;4.40;;;2.50;;
69026;SDS011;56080;47.594;19.116;2022-08-02T07:17:26;4.40;;;2.50;;
69026;SDS011;56080;47.594;19.116;2022-08-02T07:22:28;5.00;;;2.50;;
69026;SDS011;56080;47.594;19.116;2022-08-02T07:27:26;5.00;;;2.50;;
69026;SDS011;56080;47.594;19.116;2022-08-02T07:32:29;4.60;;;2.50;;
69026;SDS011;56080;47.594;19.116;2022-08-02T07:37:38;4.60;;;2.50;;
69026;SDS011;56080;47.594;19.116;2022-08-02T07:42:26;4.90;;;2.10;;
69026;SDS011;56080;47.594;19.116;2022-08-02T07:47:26;4.90;;;2.10;;
69026;SDS011;56080;47.594;19.116;2022-08-02T07:52:26;4.10;;;2.10;;
69026;SDS011;56080;47.594;19.116;2022-08-02T07:57:26;4.10;;;2.10;;
69026;SDS011;56080;47.594;19.116;2022-08-02T08:02:26;4.50;;;2.40;;
69026;SDS011;56080;47.594;19.116;2022-08-02T08:07:26;4.50;;;2.40;;
69026;SDS011;56080;47.594;19.116;2022-08-02T08:12:27;5.10;;;2.40;;
69026;SDS011;56080;47.594;19.116;2022-08-02T08:17:26;5.10;;;2.40;;
69026;SDS011;56080;47.594;19.116;2022-08-02T08:22:26;4.70;;;2.00;;
69026;SDS011;56080;47.594;19.116;2022-08-02T08:27:26;4.70;;;2.00;;
69026;SDS011;56080;47.594;19.116;2022-08-02T08:32:29;4.20;;;2.10;;
69026;SDS011;56080;47.594;19.116;2022-08-02T08:37:32;4.20;;;2.10;;
69026;SDS011;56080;47.594;19.116;2022-08-02T08:42:29;4.30;;;2.40;;
69026;SDS011;56080;47.594;19.116;2022-08-02T08:47:30;4.30;;;2.40;;
69026;SDS011;56080;47.594;19.116;2022-08-02T08:52:27;4.20;;;2.30;;
69026;SDS011;56080;47.594;19.116;2022-08-02T08:57:28;4.20;;;2.30;;
69026;SDS011;56080;47.594;19.116;2022-08-02T09:02:32;4.60;;;2.40;;
69026;SDS011;56080;47.594;19.116;2022-08-02T09:07:26;4.60;;;2.40;;
69026;SDS011;56080;47.594;19.116;2022-08-02T09:12:26;3.80;;;2.10;;
69026;SDS011;56080;47.594;19.116;2022-08-02T09:17:26;3.80;;;2.10;;
69026;SDS011;56080;47.594;19.116;2022-08-02T09:22:27;5.20;;;2.20;;
69026;SDS011;56080;47.594;19.116;2022-08-02T09:27:27;5.20;;;2.20;;
69026;SDS011;56080;47.594;19.116;2022-08-02T09:32:30;4.70;;;2.60;;
69026;SDS011;56080;47.594;19.116;2022-08-02T09:37:33;4.70;;;2.60;;
69026;SDS011;56080;47.594;19.116;2022-08-02T09:42:26;4.50;;;2.50;;
69026;SDS011;56080;47.594;19.116;2022-08-02T09:47:26;4.50;;;2.50;;
69026;SDS011;56080;47.594;19.116;2022-08-02T09:52:31;4.00;;;2.30;;
69026;SDS011;56080;47.594;19.116;2022-08-02T09:57:34;4.00;;;2.30;;
69026;SDS011;56080;47.594;19.116;2022-08-02T10:02:28;4.50;;;2.60;;
69026;SDS011;56080;47.594;19.116;2022-08-02T10:07:26;4.50;;;2.60;;
69026;SDS011;56080;47.594;19.116;2022-08-02T10:12:26;5.60;;;2.70;;
69026;SDS011;56080;47.594;19.116;2022-08-02T10:17:26;5.60;;;2.70;;
69026;SDS011;56080;47.594;19.116;2022-08-02T10:22:28;4.20;;;2.50;;
69026;SDS011;56080;47.594;19.116;2022-08-02T10:27:27;4.20;;;2.50;;
69026;SDS011;56080;47.594;19.116;2022-08-02T10:32:33;4.20;;;2.50;;
69026;SDS011;56080;47.594;19.116;2022-08-02T10:37:28;4.20;;;2.50;;
69026;SDS011;56080;47.594;19.116;2022-08-02T10:42:44;4.00;;;2.10;;
69026;SDS011;56080;47.594;19.116;2022-08-02T10:47:28;4.00;;;2.10;;
69026;SDS011;56080;47.594;19.116;2022-08-02T10:52:28;4.60;;;2.10;;
69026;SDS011;56080;47.594;19.116;2022-08-02T10:57:28;4.60;;;2.10;;
69026;SDS011;56080;47.594;19.116;2022-08-02T11:07:32;4.60;;;2.00;;
69026;SDS011;56080;47.594;19.116;2022-08-02T11:12:27;4.10;;;2.20;;
69026;SDS011;56080;47.594;19.116;2022-08-02T11:17:27;4.10;;;2.20;;
69026;SDS011;56080;47.594;19.116;2022-08-02T11:22:30;4.00;;;2.20;;
69026;SDS011;56080;47.594;19.116;2022-08-02T11:27:27;4.00;;;2.20;;
69026;SDS011;56080;47.594;19.116;2022-08-02T11:32:28;4.30;;;2.20;;
69026;SDS011;56080;47.594;19.116;2022-08-02T11:37:37;4.30;;;2.20;;
69026;SDS011;56080;47.594;19.116;2022-08-02T11:42:30;4.70;;;2.40;;
69026;SDS011;56080;47.594;19.116;2022-08-02T11:47:26;4.70;;;2.40;;
69026;SDS011;56080;47.594;19.116;2022-08-02T11:52:31;4.30;;;2.70;;
69026;SDS011;56080;47.594;19.116;2022-08-02T11:57:31;4.30;;;2.70;;
69026;SDS011;56080;47.594;19.116;2022-08-02T12:02:27;4.10;;;2.60;;
69026;SDS011;56080;47.594;19.116;2022-08-02T12:07:27;4.10;;;2.60;;
69026;SDS011;56080;47.594;19.116;2022-08-02T12:12:26;5.10;;;2.80;;
69026;SDS011;56080;47.594;19.116;2022-08-02T12:17:36;5.10;;;2.80;;
69026;SDS011;56080;47.594;19.116;2022-08-02T12:22:35;4.20;;;2.50;;
69026;SDS011;56080;47.594;19.116;2022-08-02T12:27:37;4.20;;;2.50;;
69026;SDS011;56080;47.594;19.116;2022-08-02T12:32:33;4.30;;;2.70;;
69026;SDS011;56080;47.594;19.116;2022-08-02T12:37:34;4.30;;;2.70;;
69026;SDS011;56080;47.594;19.116;2022-08-02T12:42:27;4.30;;;2.50;;
69026;SDS011;56080;47.594;19.116;2022-08-02T12:47:26;4.30;;;2.50;;
69026;SDS011;56080;47.594;19.116;2022-08-02T12:52:27;4.00;;;2.40;;
69026;SDS011;56080;47.594;19.116;2022-08-02T12:57:27;4.00;;;2.40;;
69026;SDS011;56080;47.594;19.116;2022-08-02T13:02:27;4.30;;;2.50;;
69026;SDS011;56080;47.594;19.116;2022-08-02T13:07:26;4.30;;;2.50;;
69026;SDS011;56080;47.594;19.116;2022-08-02T13:12:27;4.10;;;2.30;;
69026;SDS011;56080;47.594;19.116;2022-08-02T13:17:26;4.10;;;2.30;;
69026;SDS011;56080;47.594;19.116;2022-08-02T13:22:27;3.90;;;2.20;;
69026;SDS011;56080;47.594;19.116;2022-08-02T13:27:26;3.90;;;2.20;;
69026;SDS011;56080;47.594;19.116;2022-08-02T13:32:27;3.90;;;2.00;;
69026;SDS011;56080;47.594;19.116;2022-08-02T13:37:26;3.90;;;2.00;;
69026;SDS011;56080;47.594;19.116;2022-08-02T13:47:37;4.20;;;2.40;;
69026;SDS011;56080;47.594;19.116;2022-08-02T13:52:27;3.90;;;2.30;;
69026;SDS011;56080;47.594;19.116;2022-08-02T13:57:26;3.90;;;2.30;;
69026;SDS011;56080;47.594;19.116;2022-08-02T14:02:29;4.60;;;2.40;;
69026;SDS011;56080;47.594;19.116;2022-08-02T14:07:26;4.60;;;2.40;;
69026;SDS011;56080;47.594;19.116;2022-08-02T14:12:27;3.70;;;2.10;;
69026;SDS011;56080;47.594;19.116;2022-08-02T14:17:27;3.70;;;2.10;;
69026;SDS011;56080;47.594;19.116;2022-08-02T14:22:26;3.60;;;1.70;;
69026;SDS011;56080;47.594;19.116;2022-08-02T14:27:26;3.60;;;1.70;;
69026;SDS011;56080;47.594;19.116;2022-08-02T14:32:27;3.00;;;1.10;;
69026;SDS011;56080;47.594;19.116;2022-08-02T14:37:26;3.00;;;1.10;;
69026;SDS011;56080;47.594;19.116;2022-08-02T14:42:26;3.50;;;1.40;;
69026;SDS011;56080;47.594;19.116;2022-08-02T14:47:26;3.50;;;1.40;;
69026;SDS011;56080;47.594;19.116;2022-08-02T14:52:27;2.90;;;1.20;;
69026;SDS011;56080;47.594;19.116;2022-08-02T14:57:26;2.90;;;1.20;;
69026;SDS011;56080;47.594;19.116;2022-08-02T15:02:27;4.20;;;1.80;;
69026;SDS011;56080;47.594;19.116;2022-08-02T15:07:26;4.20;;;1.80;;
69026;SDS011;56080;47.594;19.116;2022-08-02T15:12:26;2.80;;;1.20;;
69026;SDS011;56080;47.594;19.116;2022-08-02T15:17:26;2.80;;;1.20;;
69026;SDS011;56080;47.594;19.116;2022-08-02T15:22:30;3.50;;;1.30;;
69026;SDS011;56080;47.594;19.116;2022-08-02T15:27:26;3.50;;;1.30;;
69026;SDS011;56080;47.594;19.116;2022-08-02T15:32:28;3.90;;;1.20;;
69026;SDS011;56080;47.594;19.116;2022-08-02T15:37:26;3.90;;;1.20;;
69026;SDS011;56080;47.594;19.116;2022-08-02T15:42:27;3.40;;;1.20;;
69026;SDS011;56080;47.594;19.116;2022-08-02T15:47:26;3.40;;;1.20;;
69026;SDS011;56080;47.594;19.116;2022-08-02T15:52:26;3.10;;;1.30;;
69026;SDS011;56080;47.594;19.116;2022-08-02T15:57:26;3.10;;;1.30;;
69026;SDS011;56080;47.594;19.116;2022-08-02T16:02:28;3.20;;;1.20;;
69026;SDS011;56080;47.594;19.116;2022-08-02T16:07:26;3.20;;;1.20;;
69026;SDS011;56080;47.594;19.116;2022-08-02T16:12:27;3.30;;;1.20;;
69026;SDS011;56080;47.594;19.116;2022-08-02T16:17:36;3.30;;;1.20;;
69026;SDS011;56080;47.594;19.116;2022-08-02T16:22:27;3.00;;;1.20;;
69026;SDS011;56080;47.594;19.116;2022-08-02T16:27:26;3.00;;;1.20;;
69026;SDS011;56080;47.594;19.116;2022-08-02T16:32:26;2.70;;;1.00;;
69026;SDS011;56080;47.594;19.116;2022-08-02T16:37:27;2.70;;;1.00;;
69026;SDS011;56080;47.594;19.116;2022-08-02T16:42:35;3.30;;;1.20;;
69026;SDS011;56080;47.594;19.116;2022-08-02T16:47:28;3.30;;;1.20;;
69026;SDS011;56080;47.594;19.116;2022-08-02T16:52:26;3.10;;;1.10;;
69026;SDS011;56080;47.594;19.116;2022-08-02T17:02:30;3.30;;;1.20;;
69026;SDS011;56080;47.594;19.116;2022-08-02T17:07:36;3.30;;;1.20;;
69026;SDS011;56080;47.594;19.116;2022-08-02T17:12:33;3.00;;;1.10;;
69026;SDS011;56080;47.594;19.116;2022-08-02T17:17:32;3.00;;;1.10;;
69026;SDS011;56080;47.594;19.116;2022-08-02T17:22:28;3.00;;;1.10;;
69026;SDS011;56080;47.594;19.116;2022-08-02T17:27:26;3.30;;;1.30;;
69026;SDS011;56080;47.594;19.116;2022-08-02T17:32:29;3.30;;;1.30;;
69026;SDS011;56080;47.594;19.116;2022-08-02T17:37:26;3.60;;;1.60;;
69026;SDS011;56080;47.594;19.116;2022-08-02T17:42:31;3.60;;;1.60;;
69026;SDS011;56080;47.594;19.116;2022-08-02T17:47:28;3.90;;;1.40;;
69026;SDS011;56080;47.594;19.116;2022-08-02T17:52:36;3.90;;;1.40;;
69026;SDS011;56080;47.594;19.116;2022-08-02T17:57:27;3.00;;;1.30;;
69026;SDS011;56080;47.594;19.116;2022-08-02T18:02:27;3.00;;;1.30;;
69026;SDS011;56080;47.594;19.116;2022-08-02T18:07:35;3.60;;;1.30;;
69026;SDS011;56080;47.594;19.116;2022-08-02T18:12:28;3.60;;;1.30;;
69026;SDS011;56080;47.594;19.116;2022-08-02T18:17:26;4.10;;;1.30;;
69026;SDS011;56080;47.594;19.116;2022-08-02T18:22:27;4.10;;;1.30;;
69026;SDS011;56080;47.594;19.116;2022-08-02T18:27:26;3.30;;;1.10;;
69026;SDS011;56080;47.594;19.116;2022-08-02T18:32:36;3.30;;;1.10;;
69026;SDS011;56080;47.594;19.116;2022-08-02T18:37:28;3.00;;;1.00;;
69026;SDS011;56080;47.594;19.116;2022-08-02T18:42:28;3.00;;;1.00;;
69026;SDS011;56080;47.594;19.116;2022-08-02T18:47:26;3.60;;;1.30;;
69026;SDS011;56080;47.594;19.116;2022-08-02T18:52:36;3.60;;;1.30;;
69026;SDS011;56080;47.594;19.116;2022-08-02T18:57:36;2.90;;;1.10;;
69026;SDS011;56080;47.594;19.116;2022-08-02T19:07:32;4.30;;;1.20;;
69026;SDS011;56080;47.594;19.116;2022-08-02T19:12:36;4.30;;;1.20;;
69026;SDS011;56080;47.594;19.116;2022-08-02T19:17:36;3.00;;;1.00;;
69026;SDS011;56080;47.594;19.116;2022-08-02T19:22:30;3.00;;;1.00;;
69026;SDS011;56080;47.594;19.116;2022-08-02T19:27:27;3.80;;;1.80;;
69026;SDS011;56080;47.594;19.116;2022-08-02T19:32:36;3.80;;;1.80;;
69026;SDS011;56080;47.594;19.116;2022-08-02T19:37:28;3.50;;;1.20;;
69026;SDS011;56080;47.594;19.116;2022-08-02T19:42:27;3.50;;;1.20;;
69026;SDS011;56080;47.594;19.116;2022-08-02T19:47:30;4.00;;;1.40;;
69026;SDS011;56080;47.594;19.116;2022-08-02T19:52:32;4.00;;;1.40;;
69026;SDS011;56080;47.594;19.116;2022-08-02T19:57:30;3.60;;;1.30;;
69026;SDS011;56080;47.594;19.116;2022-08-02T20:02:27;3.60;;;1.30;;
69026;SDS011;56080;47.594;19.116;2022-08-02T20:07:37;3.30;;;1.40;;
69026;SDS011;56080;47.594;19.116;2022-08-02T20:12:27;3.30;;;1.40;;
69026;SDS011;56080;47.594;19.116;2022-08-02T20:17:26;3.90;;;1.60;;
69026;SDS011;56080;47.594;19.116;2022-08-02T20:22:27;3.90;;;1.60;;
69026;SDS011;56080;47.594;19.116;2022-08-02T20:27:36;4.30;;;1.80;;
69026;SDS011;56080;47.594;19.116;2022-08-02T20:32:34;4.30;;;1.80;;
69026;SDS011;56080;47.594;19.116;2022-08-02T20:37:36;3.80;;;1.70;;
69026;SDS011;56080;47.594;19.116;2022-08-02T20:42:34;3.80;;;1.70;;
69026;SDS011;56080;47.594;19.116;2022-08-02T20:47:26;4.20;;;1.40;;
69026;SDS011;56080;47.594;19.116;2022-08-02T20:52:35;4.20;;;1.40;;
69026;SDS011;56080;47.594;19.116;2022-08-02T20:57:28;4.60;;;1.60;;
69026;SDS011;56080;47.594;19.116;2022-08-02T21:02:27;4.60;;;1.60;;
69026;SDS011;56080;47.594;19.116;2022-08-02T21:07:29;4.60;;;2.40;;
69026;SDS011;56080;47.594;19.116;2022-08-02T21:12:26;4.60;;;2.40;;
69026;SDS011;56080;47.594;19.116;2022-08-02T21:17:36;4.40;;;2.20;;
69026;SDS011;56080;47.594;19.116;2022-08-02T21:22:36;4.40;;;2.20;;
69026;SDS011;56080;47.594;19.116;2022-08-02T21:27:36;4.40;;;2.00;;
69026;SDS011;56080;47.594;19.116;2022-08-02T21:32:27;4.40;;;2.00;;
69026;SDS011;56080;47.594;19.116;2022-08-02T21:37:36;4.30;;;1.70;;
69026;SDS011;56080;47.594;19.116;2022-08-02T21:42:33;4.30;;;1.70;;
69026;SDS011;56080;47.594;19.116;2022-08-02T21:47:34;3.70;;;1.80;;
69026;SDS011;56080;47.594;19.116;2022-08-02T21:52:29;3.70;;;1.80;;
69026;SDS011;56080;47.594;19.116;2022-08-02T21:57:27;3.90;;;1.70;;
69026;SDS011;56080;47.594;19.116;2022-08-02T22:02:27;3.90;;;1.70;;
69026;SDS011;56080;47.594;19.116;2022-08-02T22:07:28;4.70;;;2.20;;
69026;SDS011;56080;47.594;19.116;2022-08-02T22:12:29;4.70;;;2.20;;
69026;SDS011;56080;47.594;19.116;2022-08-02T22:17:26;4.30;;;1.90;;
69026;SDS011;56080;47.594;19.116;2022-08-02T22:22:26;4.30;;;1.90;;
69026;SDS011;56080;47.594;19.116;2022-08-02T22:27:30;4.10;;;2.00;;
69026;SDS011;56080;47.594;19.116;2022-08-02T22:32:42;4.10;;;2.00;;
69026;SDS011;56080;47.594;19.116;2022-08-02T22:37:36;5.00;;;2.10;;
69026;SDS011;56080;47.594;19.116;2022-08-02T22:42:26;5.00;;;2.10;;
69026;SDS011;56080;47.594;19.116;2022-08-02T22:47:26;4.10;;;2.00;;
69026;SDS011;56080;47.594;19.116;2022-08-02T22:52:30;4.10;;;2.00;;
69026;SDS011;56080;47.594;19.116;2022-08-02T22:57:26;4.30;;;2.00;;
69026;SDS011;56080;47.594;19.116;2022-08-02T23:02:28;4.30;;;2.00;;
69026;SDS011;56080;47.594;19.116;2022-08-02T23:07:26;4.20;;;2.00;;
69026;SDS011;56080;47.594;19.116;2022-08-02T23:12:29;4.20;;;2.00;;
69026;SDS011;56080;47.594;19.116;2022-08-02T23:17:36;3.60;;;1.80;;
69026;SDS011;56080;47.594;19.116;2022-08-02T23:22:27;3.60;;;1.80;;
69026;SDS011;56080;47.594;19.116;2022-08-02T23:27:27;4.30;;;2.10;;
69026;SDS011;56080;47.594;19.116;2022-08-02T23:32:27;4.30;;;2.10;;
69026;SDS011;56080;47.594;19.116;2022-08-02T23:37:26;4.30;;;2.30;;
69026;SDS011;56080;47.594;19.116;2022-08-02T23:42:26;4.30;;;2.30;;
69026;SDS011;56080;47.594;19.116;2022-08-02T23:47:26;4.30;;;2.40;;
69026;SDS011;56080;47.594;19.116;2022-08-02T23:52:27;4.30;;;2.40;;
69026;SDS011;56080;47.594;19.116;2022-08-02T23:57:31;4.40;;;2.50;;
